createdAt,value
2016-10-05T00:00:07.551Z,9.18
2016-10-05T00:01:07.207Z,9.18
2016-10-05T00:02:07.844Z,9.19
2016-10-05T00:03:07.533Z,9.25
2016-10-05T00:04:07.217Z,9.19
2016-10-05T00:05:07.841Z,9.23
2016-10-05T00:06:07.481Z,9.28
2016-10-05T00:07:07.141Z,9.27
2016-10-05T00:08:07.825Z,9.29
2016-10-05T00:09:07.568Z,9.38
2016-10-05T00:10:07.141Z,9.39
2016-10-05T00:11:07.777Z,9.33
2016-10-05T00:12:07.408Z,9.27
2016-10-05T00:13:07.065Z,9.24
2016-10-05T00:14:07.776Z,9.22
2016-10-05T00:15:07.369Z,9.30
2016-10-05T00:16:07.050Z,9.32
2016-10-05T00:17:07.768Z,9.32
2016-10-05T00:18:07.472Z,9.30
2016-10-05T00:19:07.191Z,9.32
2016-10-05T00:20:07.838Z,9.23
2016-10-05T00:21:07.484Z,9.34
2016-10-05T00:22:07.150Z,9.30
2016-10-05T00:23:07.819Z,9.30
2016-10-05T00:24:07.521Z,9.25
2016-10-05T00:25:07.119Z,9.27
2016-10-05T00:26:07.752Z,9.31
2016-10-05T00:27:07.412Z,9.29
2016-10-05T00:28:07.093Z,9.23
2016-10-05T00:29:07.731Z,9.26
2016-10-05T00:30:07.351Z,9.35
2016-10-05T00:31:07.084Z,9.36
2016-10-05T00:32:07.692Z,9.40
2016-10-05T00:33:07.468Z,9.31
2016-10-05T00:34:08.039Z,9.37
2016-10-05T00:35:07.634Z,9.30
2016-10-05T00:36:07.305Z,9.35
2016-10-05T00:37:07.968Z,9.33
2016-10-05T00:38:07.634Z,9.31
2016-10-05T00:39:07.318Z,9.24
2016-10-05T00:40:07.911Z,9.29
2016-10-05T00:41:07.693Z,9.21
2016-10-05T00:42:07.329Z,9.32
2016-10-05T00:43:07.981Z,9.40
2016-10-05T00:44:07.632Z,9.25
2016-10-05T00:45:07.232Z,9.29
2016-10-05T00:46:07.819Z,9.37
2016-10-05T00:47:07.506Z,9.38
2016-10-05T00:48:07.160Z,9.44
2016-10-05T00:49:07.793Z,9.36
2016-10-05T00:50:07.427Z,9.44
2016-10-05T00:51:07.103Z,9.36
2016-10-05T00:52:07.674Z,9.41
2016-10-05T00:53:07.420Z,9.42
2016-10-05T00:54:08.033Z,9.40
2016-10-05T00:55:07.662Z,9.30
2016-10-05T00:56:07.324Z,9.29
2016-10-05T00:57:07.923Z,9.29
2016-10-05T00:58:07.592Z,9.28
2016-10-05T00:59:07.272Z,9.30
2016-10-05T01:00:07.871Z,9.31
2016-10-05T01:01:07.526Z,9.32
2016-10-05T01:02:07.163Z,9.19
2016-10-05T01:03:07.893Z,9.19
2016-10-05T01:04:07.523Z,9.29
2016-10-05T01:05:07.183Z,9.22
2016-10-05T01:06:07.739Z,9.20
2016-10-05T01:07:07.420Z,9.17
2016-10-05T01:08:07.026Z,9.22
2016-10-05T01:09:07.775Z,9.22
2016-10-05T01:10:07.376Z,9.22
2016-10-05T01:11:07.044Z,9.21
2016-10-05T01:12:07.689Z,9.13
2016-10-05T01:13:07.563Z,9.09
2016-10-05T01:14:08.050Z,9.19
2016-10-05T01:15:07.632Z,9.23
2016-10-05T01:16:07.307Z,9.08
2016-10-05T01:17:07.971Z,9.00
2016-10-05T01:18:07.723Z,9.07
2016-10-05T01:19:07.424Z,9.06
2016-10-05T01:20:07.981Z,9.06
2016-10-05T01:21:07.692Z,9.10
2016-10-05T01:22:07.341Z,9.07
2016-10-05T01:23:07.973Z,9.07
2016-10-05T01:24:07.712Z,8.96
2016-10-05T01:25:07.319Z,8.82
2016-10-05T01:26:07.941Z,8.94
2016-10-05T01:27:07.574Z,8.86
2016-10-05T01:28:07.240Z,8.86
2016-10-05T01:29:08.138Z,8.98
2016-10-05T01:30:07.494Z,9.04
2016-10-05T01:31:07.163Z,9.00
2016-10-05T01:32:07.836Z,9.03
2016-10-05T01:33:07.471Z,9.02
2016-10-05T01:34:07.125Z,8.94
2016-10-05T01:35:07.812Z,8.93
2016-10-05T01:36:07.438Z,8.97
2016-10-05T01:37:07.055Z,8.97
2016-10-05T01:38:07.677Z,9.07
2016-10-05T01:39:07.325Z,9.03
2016-10-05T01:40:08.055Z,8.95
2016-10-05T01:41:07.633Z,8.95
2016-10-05T01:42:07.243Z,8.88
2016-10-05T01:43:07.959Z,8.86
2016-10-05T01:44:07.601Z,8.87
2016-10-05T01:45:07.229Z,8.87
2016-10-05T01:46:07.874Z,8.97
2016-10-05T01:47:07.520Z,8.98
2016-10-05T01:48:07.163Z,9.03
2016-10-05T01:49:07.801Z,8.95
2016-10-05T01:50:07.493Z,8.83
2016-10-05T01:51:07.073Z,8.80
2016-10-05T01:52:07.692Z,8.84
2016-10-05T01:53:07.328Z,8.93
2016-10-05T01:54:07.982Z,9.01
2016-10-05T01:55:07.663Z,8.98
2016-10-05T01:56:07.252Z,8.85
2016-10-05T01:57:07.882Z,8.91
2016-10-05T01:58:07.587Z,8.90
2016-10-05T01:59:07.211Z,8.86
2016-10-05T02:00:07.928Z,8.95
2016-10-05T02:01:07.525Z,8.96
2016-10-05T02:02:07.180Z,8.96
2016-10-05T02:03:07.856Z,8.90
2016-10-05T02:04:07.476Z,8.87
2016-10-05T02:05:07.156Z,8.82
2016-10-05T02:06:07.784Z,8.88
2016-10-05T02:07:07.407Z,8.88
2016-10-05T02:08:07.063Z,8.99
2016-10-05T02:09:07.706Z,8.95
2016-10-05T02:10:07.413Z,8.95
2016-10-05T02:11:07.042Z,8.78
2016-10-05T02:12:07.701Z,8.83
2016-10-05T02:13:07.401Z,8.74
2016-10-05T02:14:08.011Z,8.76
2016-10-05T02:15:07.702Z,8.89
2016-10-05T02:16:07.285Z,8.88
2016-10-05T02:17:07.978Z,8.84
2016-10-05T02:18:07.721Z,8.89
2016-10-05T02:19:07.338Z,8.70
2016-10-05T02:20:08.035Z,8.72
2016-10-05T02:21:07.638Z,8.68
2016-10-05T02:22:07.293Z,8.72
2016-10-05T02:23:07.943Z,8.75
2016-10-05T02:24:07.572Z,8.76
2016-10-05T02:25:07.271Z,8.58
2016-10-05T02:26:07.878Z,8.65
2016-10-05T02:27:07.515Z,8.56
2016-10-05T02:28:07.214Z,8.57
2016-10-05T02:29:07.866Z,8.74
2016-10-05T02:30:07.517Z,8.66
2016-10-05T02:31:07.078Z,8.71
2016-10-05T02:32:07.781Z,8.68
2016-10-05T02:33:07.409Z,8.57
2016-10-05T02:34:07.054Z,8.59
2016-10-05T02:35:07.726Z,8.56
2016-10-05T02:36:07.321Z,8.45
2016-10-05T02:37:07.946Z,8.41
2016-10-05T02:38:07.571Z,8.46
2016-10-05T02:39:07.226Z,8.53
2016-10-05T02:40:07.979Z,8.49
2016-10-05T02:41:07.585Z,8.38
2016-10-05T02:42:07.232Z,8.34
2016-10-05T02:43:07.919Z,8.27
2016-10-05T02:44:07.503Z,8.43
2016-10-05T02:45:07.180Z,8.50
2016-10-05T02:46:07.777Z,8.46
2016-10-05T02:47:07.434Z,8.40
2016-10-05T02:48:07.065Z,8.42
2016-10-05T02:49:07.742Z,8.33
2016-10-05T02:50:07.414Z,8.28
2016-10-05T02:51:08.026Z,8.31
2016-10-05T02:52:07.633Z,8.24
2016-10-05T02:53:07.317Z,8.26
2016-10-05T02:54:07.954Z,8.21
2016-10-05T02:55:07.629Z,8.23
2016-10-05T02:56:07.260Z,8.11
2016-10-05T02:57:07.885Z,8.21
2016-10-05T02:58:07.922Z,8.22
2016-10-05T02:59:07.185Z,8.27
2016-10-05T03:00:07.853Z,8.01
2016-10-05T03:01:07.458Z,8.11
2016-10-05T03:02:07.134Z,8.24
2016-10-05T03:03:07.771Z,8.20
2016-10-05T03:04:07.448Z,8.24
2016-10-05T03:05:07.120Z,8.16
2016-10-05T03:06:07.706Z,8.22
2016-10-05T03:07:07.361Z,8.18
2016-10-05T03:08:08.018Z,8.12
2016-10-05T03:09:07.667Z,8.00
2016-10-05T03:10:07.321Z,8.08
2016-10-05T03:11:07.922Z,8.01
2016-10-05T03:12:07.547Z,8.05
2016-10-05T03:13:07.256Z,7.99
2016-10-05T03:14:07.856Z,7.95
2016-10-05T03:15:07.534Z,8.08
2016-10-05T03:16:07.109Z,7.75
2016-10-05T03:17:07.821Z,8.00
2016-10-05T03:18:07.583Z,8.01
2016-10-05T03:19:07.223Z,7.83
2016-10-05T03:20:07.905Z,7.97
2016-10-05T03:21:07.490Z,8.10
2016-10-05T03:22:07.156Z,8.08
2016-10-05T03:23:07.814Z,7.97
2016-10-05T03:24:07.452Z,7.88
2016-10-05T03:25:07.113Z,7.79
2016-10-05T03:26:07.707Z,7.77
2016-10-05T03:27:07.345Z,7.79
2016-10-05T03:28:08.055Z,7.74
2016-10-05T03:29:07.666Z,7.79
2016-10-05T03:30:07.373Z,7.66
2016-10-05T03:31:07.944Z,7.64
2016-10-05T03:32:07.609Z,7.62
2016-10-05T03:33:07.261Z,7.51
2016-10-05T03:34:07.912Z,7.50
2016-10-05T03:35:07.591Z,7.53
2016-10-05T03:36:07.234Z,7.52
2016-10-05T03:37:07.841Z,7.38
2016-10-05T03:38:07.479Z,7.39
2016-10-05T03:39:07.101Z,7.47
2016-10-05T03:40:07.804Z,7.28
2016-10-05T03:41:07.327Z,7.37
2016-10-05T03:42:08.008Z,7.32
2016-10-05T03:43:07.716Z,7.26
2016-10-05T03:44:07.313Z,7.27
2016-10-05T03:45:08.001Z,7.29
2016-10-05T03:46:07.584Z,7.30
2016-10-05T03:47:07.228Z,7.30
2016-10-05T03:48:07.863Z,7.36
2016-10-05T03:49:07.479Z,7.36
2016-10-05T03:50:07.194Z,7.21
2016-10-05T03:51:07.778Z,7.29
2016-10-05T03:52:07.415Z,7.25
2016-10-05T03:53:07.061Z,7.26
2016-10-05T03:54:07.711Z,7.33
2016-10-05T03:55:07.401Z,7.28
2016-10-05T03:56:08.276Z,7.29
2016-10-05T03:57:07.934Z,7.21
2016-10-05T03:58:07.614Z,7.27
2016-10-05T03:59:07.229Z,7.11
2016-10-05T04:00:07.919Z,7.21
2016-10-05T04:01:07.551Z,7.17
2016-10-05T04:02:07.238Z,7.23
2016-10-05T04:03:07.866Z,7.02
2016-10-05T04:04:07.512Z,7.21
2016-10-05T04:05:07.209Z,7.31
2016-10-05T04:06:07.799Z,7.40
2016-10-05T04:07:07.429Z,7.43
2016-10-05T04:08:07.081Z,7.44
2016-10-05T04:09:07.752Z,7.35
2016-10-05T04:10:07.451Z,7.30
2016-10-05T04:11:07.996Z,7.40
2016-10-05T04:12:07.661Z,7.21
2016-10-05T04:13:07.324Z,7.20
2016-10-05T04:14:07.939Z,7.23
2016-10-05T04:15:07.639Z,7.26
2016-10-05T04:16:07.257Z,7.27
2016-10-05T04:17:07.895Z,7.20
2016-10-05T04:18:07.650Z,7.22
2016-10-05T04:19:07.310Z,7.08
2016-10-05T04:20:07.968Z,7.23
2016-10-05T04:21:07.585Z,7.26
2016-10-05T04:22:07.224Z,7.14
2016-10-05T04:23:07.862Z,7.14
2016-10-05T04:24:07.510Z,7.06
2016-10-05T04:25:09.595Z,7.08
2016-10-05T04:26:07.552Z,7.11
2016-10-05T04:27:07.185Z,7.05
2016-10-05T04:28:07.902Z,7.06
2016-10-05T04:29:07.499Z,7.14
2016-10-05T04:30:07.146Z,7.10
2016-10-05T04:31:07.820Z,7.10
2016-10-05T04:32:07.400Z,6.96
2016-10-05T04:33:07.042Z,7.03
2016-10-05T04:34:07.690Z,7.11
2016-10-05T04:35:07.367Z,7.15
2016-10-05T04:36:08.060Z,7.05
2016-10-05T04:37:07.659Z,7.03
2016-10-05T04:38:07.299Z,7.04
2016-10-05T04:39:07.985Z,7.03
2016-10-05T04:40:07.657Z,7.01
2016-10-05T04:41:07.318Z,7.12
2016-10-05T04:42:07.908Z,7.17
2016-10-05T04:43:07.596Z,7.14
2016-10-05T04:44:07.278Z,7.08
2016-10-05T04:45:07.832Z,7.06
2016-10-05T04:46:07.521Z,7.05
2016-10-05T04:47:07.151Z,6.99
2016-10-05T04:48:07.810Z,6.96
2016-10-05T04:49:07.436Z,6.96
2016-10-05T04:50:07.103Z,6.94
2016-10-05T04:51:07.807Z,7.04
2016-10-05T04:52:07.431Z,7.01
2016-10-05T04:53:07.033Z,7.06
2016-10-05T04:54:07.673Z,6.97
2016-10-05T04:55:07.351Z,6.98
2016-10-05T04:56:08.048Z,6.94
2016-10-05T04:57:07.628Z,6.89
2016-10-05T04:58:07.315Z,6.73
2016-10-05T04:59:07.910Z,6.77
2016-10-05T05:00:07.578Z,6.87
2016-10-05T05:01:07.255Z,6.86
2016-10-05T05:02:07.871Z,6.86
2016-10-05T05:03:07.540Z,6.78
2016-10-05T05:04:07.152Z,6.82
2016-10-05T05:05:07.760Z,6.87
2016-10-05T05:06:07.481Z,6.88
2016-10-05T05:07:07.071Z,6.82
2016-10-05T05:08:07.681Z,6.85
2016-10-05T05:09:07.329Z,7.00
2016-10-05T05:10:07.964Z,7.07
2016-10-05T05:11:07.665Z,6.94
2016-10-05T05:12:07.269Z,6.90
2016-10-05T05:13:07.961Z,6.85
2016-10-05T05:14:07.528Z,6.89
2016-10-05T05:15:07.181Z,7.01
2016-10-05T05:16:07.868Z,6.96
2016-10-05T05:17:07.616Z,6.86
2016-10-05T05:18:07.308Z,6.76
2016-10-05T05:19:07.967Z,6.61
2016-10-05T05:20:07.588Z,6.66
2016-10-05T05:21:07.334Z,6.53
2016-10-05T05:22:07.951Z,6.61
2016-10-05T05:23:07.604Z,6.72
2016-10-05T05:24:07.244Z,6.81
2016-10-05T05:25:07.858Z,6.76
2016-10-05T05:26:07.531Z,6.76
2016-10-05T05:27:07.097Z,6.69
2016-10-05T05:28:07.815Z,6.58
2016-10-05T05:29:07.379Z,6.57
2016-10-05T05:30:07.029Z,6.74
2016-10-05T05:31:07.743Z,6.73
2016-10-05T05:32:07.359Z,6.79
2016-10-05T05:33:07.940Z,6.76
2016-10-05T05:34:07.610Z,6.73
2016-10-05T05:35:07.220Z,6.87
2016-10-05T05:36:07.919Z,6.96
2016-10-05T05:37:07.507Z,6.94
2016-10-05T05:38:07.189Z,6.96
2016-10-05T05:39:07.821Z,6.97
2016-10-05T05:40:07.440Z,6.96
2016-10-05T05:41:07.150Z,6.83
2016-10-05T05:42:07.746Z,6.78
2016-10-05T05:43:07.494Z,6.90
2016-10-05T05:44:07.014Z,6.89
2016-10-05T05:45:07.687Z,6.82
2016-10-05T05:46:07.387Z,6.89
2016-10-05T05:47:07.991Z,6.88
2016-10-05T05:48:07.665Z,6.85
2016-10-05T05:49:07.344Z,6.78
2016-10-05T05:50:08.003Z,6.92
2016-10-05T05:51:07.666Z,6.91
2016-10-05T05:52:07.285Z,6.91
2016-10-05T05:53:07.921Z,6.82
2016-10-05T05:54:07.636Z,6.82
2016-10-05T05:55:07.219Z,6.79
2016-10-05T05:56:07.909Z,6.65
2016-10-05T05:57:07.539Z,6.75
2016-10-05T05:58:07.246Z,6.75
2016-10-05T05:59:07.971Z,6.74
2016-10-05T06:00:07.558Z,6.73
2016-10-05T06:01:07.285Z,6.82
2016-10-05T06:02:07.917Z,6.85
2016-10-05T06:03:07.575Z,6.82
2016-10-05T06:04:07.213Z,6.74
2016-10-05T06:05:07.860Z,6.84
2016-10-05T06:06:07.548Z,6.84
2016-10-05T06:07:07.099Z,6.86
2016-10-05T06:08:07.733Z,6.93
2016-10-05T06:09:07.360Z,6.92
2016-10-05T06:10:07.041Z,6.90
2016-10-05T06:11:07.728Z,7.02
2016-10-05T06:12:07.333Z,7.00
2016-10-05T06:13:07.956Z,7.06
2016-10-05T06:14:07.645Z,7.07
2016-10-05T06:15:07.262Z,7.09
2016-10-05T06:16:07.948Z,7.15
2016-10-05T06:17:07.645Z,7.16
2016-10-05T06:18:07.398Z,7.13
2016-10-05T06:19:07.004Z,7.01
2016-10-05T06:20:07.688Z,6.95
2016-10-05T06:21:07.398Z,7.00
2016-10-05T06:22:08.004Z,7.05
2016-10-05T06:23:07.652Z,7.03
2016-10-05T06:24:07.294Z,6.97
2016-10-05T06:25:07.968Z,6.97
2016-10-05T06:26:07.628Z,7.05
2016-10-05T06:27:07.266Z,7.09
2016-10-05T06:28:08.179Z,7.08
2016-10-05T06:29:07.590Z,7.16
2016-10-05T06:30:07.264Z,7.05
2016-10-05T06:31:07.969Z,7.09
2016-10-05T06:32:07.612Z,7.16
2016-10-05T06:33:07.251Z,7.12
2016-10-05T06:34:07.930Z,6.94
2016-10-05T06:35:07.530Z,7.11
2016-10-05T06:36:07.261Z,7.17
2016-10-05T06:37:07.881Z,7.13
2016-10-05T06:38:07.500Z,7.17
2016-10-05T06:39:07.198Z,7.28
2016-10-05T06:40:07.827Z,7.21
2016-10-05T06:41:07.501Z,7.14
2016-10-05T06:42:07.097Z,7.03
2016-10-05T06:43:07.752Z,7.05
2016-10-05T06:44:07.400Z,7.06
2016-10-05T06:45:07.059Z,7.10
2016-10-05T06:46:07.740Z,7.22
2016-10-05T06:47:07.369Z,7.12
2016-10-05T06:48:07.984Z,7.20
2016-10-05T06:49:07.641Z,7.34
2016-10-05T06:50:07.287Z,7.14
2016-10-05T06:51:08.005Z,7.02
2016-10-05T06:52:07.618Z,7.10
2016-10-05T06:53:07.242Z,7.22
2016-10-05T06:54:07.882Z,7.25
2016-10-05T06:55:07.536Z,7.36
2016-10-05T06:56:07.237Z,7.38
2016-10-05T06:57:07.843Z,7.35
2016-10-05T06:58:07.476Z,7.16
2016-10-05T06:59:07.185Z,7.28
2016-10-05T07:00:07.812Z,7.26
2016-10-05T07:01:07.486Z,7.36
2016-10-05T07:02:07.129Z,7.43
2016-10-05T07:03:07.725Z,7.40
2016-10-05T07:04:07.362Z,7.47
2016-10-05T07:05:07.984Z,7.49
2016-10-05T07:06:07.761Z,7.52
2016-10-05T07:07:07.312Z,7.47
2016-10-05T07:08:07.962Z,7.51
2016-10-05T07:09:07.654Z,7.69
2016-10-05T07:10:07.304Z,7.73
2016-10-05T07:11:07.994Z,7.65
2016-10-05T07:12:07.596Z,7.77
2016-10-05T07:13:07.274Z,7.84
2016-10-05T07:14:07.984Z,7.62
2016-10-05T07:15:07.620Z,7.69
2016-10-05T07:16:07.291Z,7.70
2016-10-05T07:17:08.017Z,7.74
2016-10-05T07:18:07.801Z,7.78
2016-10-05T07:19:07.463Z,7.62
2016-10-05T07:20:07.074Z,7.61
2016-10-05T07:21:07.772Z,7.67
2016-10-05T07:22:07.350Z,7.73
2016-10-05T07:23:07.992Z,7.74
2016-10-05T07:24:07.659Z,7.70
2016-10-05T07:25:07.302Z,7.77
2016-10-05T07:26:07.989Z,7.80
2016-10-05T07:27:07.605Z,7.96
2016-10-05T07:28:07.301Z,7.94
2016-10-05T07:29:07.943Z,7.92
2016-10-05T07:30:07.657Z,7.94
2016-10-05T07:31:07.243Z,8.03
2016-10-05T07:32:07.892Z,7.92
2016-10-05T07:33:07.506Z,8.07
2016-10-05T07:34:07.166Z,8.16
2016-10-05T07:35:07.843Z,8.12
2016-10-05T07:36:07.543Z,8.17
2016-10-05T07:37:07.164Z,8.16
2016-10-05T07:38:07.831Z,8.14
2016-10-05T07:39:07.464Z,8.21
2016-10-05T07:40:07.117Z,8.17
2016-10-05T07:41:07.820Z,8.20
2016-10-05T07:42:07.437Z,8.25
2016-10-05T07:43:07.059Z,8.25
2016-10-05T07:44:07.752Z,8.19
2016-10-05T07:45:07.357Z,8.13
2016-10-05T07:46:08.024Z,8.15
2016-10-05T07:47:07.659Z,8.03
2016-10-05T07:48:07.332Z,8.03
2016-10-05T07:49:07.993Z,8.04
2016-10-05T07:50:07.654Z,7.87
2016-10-05T07:51:07.365Z,8.12
2016-10-05T07:52:07.964Z,8.10
2016-10-05T07:53:07.662Z,8.09
2016-10-05T07:54:07.308Z,8.01
2016-10-05T07:55:07.972Z,8.24
2016-10-05T07:56:07.726Z,8.30
2016-10-05T07:57:07.282Z,8.32
2016-10-05T07:58:07.952Z,8.27
2016-10-05T07:59:07.643Z,8.39
2016-10-05T08:00:07.272Z,8.38
2016-10-05T08:01:07.974Z,8.32
2016-10-05T08:02:07.561Z,8.44
2016-10-05T08:03:07.412Z,8.45
2016-10-05T08:04:07.993Z,8.47
2016-10-05T08:05:07.544Z,8.46
2016-10-05T08:06:07.185Z,8.51
2016-10-05T08:07:07.845Z,8.55
2016-10-05T08:08:07.460Z,8.62
2016-10-05T08:09:07.127Z,8.49
2016-10-05T08:10:07.778Z,8.54
2016-10-05T08:11:07.495Z,8.51
2016-10-05T08:12:07.148Z,8.62
2016-10-05T08:13:07.722Z,8.51
2016-10-05T08:14:07.404Z,8.29
2016-10-05T08:15:07.987Z,8.47
2016-10-05T08:16:07.698Z,8.33
2016-10-05T08:17:07.355Z,8.22
2016-10-05T08:18:07.074Z,8.16
2016-10-05T08:19:07.728Z,8.27
2016-10-05T08:20:07.353Z,8.20
2016-10-05T08:21:08.075Z,8.36
2016-10-05T08:22:07.648Z,8.44
2016-10-05T08:23:07.299Z,8.47
2016-10-05T08:24:07.962Z,8.43
2016-10-05T08:25:07.619Z,8.38
2016-10-05T08:26:07.313Z,8.38
2016-10-05T08:27:07.974Z,8.29
2016-10-05T08:28:07.577Z,8.37
2016-10-05T08:29:07.274Z,8.44
2016-10-05T08:30:07.894Z,8.39
2016-10-05T08:31:07.564Z,8.39
2016-10-05T08:32:07.240Z,8.56
2016-10-05T08:33:07.825Z,8.60
2016-10-05T08:34:07.489Z,8.65
2016-10-05T08:35:07.120Z,8.74
2016-10-05T08:36:07.789Z,8.86
2016-10-05T08:37:07.455Z,9.02
2016-10-05T08:38:07.132Z,9.09
2016-10-05T08:39:07.783Z,9.10
2016-10-05T08:40:07.448Z,9.06
2016-10-05T08:41:07.129Z,9.24
2016-10-05T08:42:07.835Z,9.27
2016-10-05T08:43:07.428Z,9.41
2016-10-05T08:44:07.229Z,9.36
2016-10-05T08:45:07.777Z,9.32
2016-10-05T08:46:07.405Z,9.35
2016-10-05T08:47:07.051Z,9.31
2016-10-05T08:48:07.716Z,9.28
2016-10-05T08:49:07.348Z,9.30
2016-10-05T08:50:07.991Z,9.23
2016-10-05T08:51:07.631Z,9.23
2016-10-05T08:52:07.295Z,9.17
2016-10-05T08:53:07.887Z,9.12
2016-10-05T08:54:07.668Z,9.26
2016-10-05T08:55:07.195Z,9.05
2016-10-05T08:56:07.863Z,9.17
2016-10-05T08:57:07.541Z,9.01
2016-10-05T08:58:07.151Z,9.05
2016-10-05T08:59:07.875Z,9.11
2016-10-05T09:00:07.579Z,9.16
2016-10-05T09:01:07.111Z,9.14
2016-10-05T09:02:07.824Z,9.05
2016-10-05T09:03:07.393Z,9.12
2016-10-05T09:04:07.048Z,9.14
2016-10-05T09:05:07.666Z,8.95
2016-10-05T09:06:07.328Z,8.94
2016-10-05T09:07:08.016Z,9.06
2016-10-05T09:08:07.621Z,9.01
2016-10-05T09:09:07.284Z,9.08
2016-10-05T09:10:07.934Z,9.15
2016-10-05T09:11:07.590Z,9.24
2016-10-05T09:12:07.329Z,9.26
2016-10-05T09:13:07.923Z,9.21
2016-10-05T09:14:07.609Z,9.17
2016-10-05T09:15:07.238Z,9.06
2016-10-05T09:16:07.916Z,9.07
2016-10-05T09:17:07.676Z,8.88
2016-10-05T09:18:07.387Z,8.94
2016-10-05T09:19:07.998Z,9.00
2016-10-05T09:20:07.670Z,8.98
2016-10-05T09:21:07.346Z,9.01
2016-10-05T09:22:08.050Z,8.96
2016-10-05T09:23:07.659Z,9.09
2016-10-05T09:24:07.275Z,9.09
2016-10-05T09:25:07.966Z,9.12
2016-10-05T09:26:07.615Z,9.27
2016-10-05T09:27:07.333Z,9.40
2016-10-05T09:28:07.905Z,9.46
2016-10-05T09:29:07.601Z,9.60
2016-10-05T09:30:07.235Z,9.61
2016-10-05T09:31:07.894Z,9.69
2016-10-05T09:32:07.645Z,9.82
2016-10-05T09:33:07.203Z,9.87
2016-10-05T09:34:07.879Z,9.74
2016-10-05T09:35:07.537Z,9.68
2016-10-05T09:36:07.179Z,9.86
2016-10-05T09:37:07.873Z,9.97
2016-10-05T09:38:07.486Z,9.93
2016-10-05T09:39:07.124Z,9.85
2016-10-05T09:40:07.750Z,10.06
2016-10-05T09:41:07.424Z,10.24
2016-10-05T09:42:07.106Z,10.23
2016-10-05T09:43:07.714Z,10.22
2016-10-05T09:44:07.426Z,10.34
2016-10-05T09:45:07.006Z,10.35
2016-10-05T09:46:07.728Z,10.40
2016-10-05T09:47:07.407Z,10.42
2016-10-05T09:48:07.026Z,10.46
2016-10-05T09:49:07.685Z,10.48
2016-10-05T09:50:07.423Z,10.45
2016-10-05T09:51:07.957Z,10.41
2016-10-05T09:52:07.686Z,10.14
2016-10-05T09:53:07.276Z,10.28
2016-10-05T09:54:07.952Z,10.15
2016-10-05T09:55:07.558Z,10.26
2016-10-05T09:56:07.250Z,10.29
2016-10-05T09:57:07.967Z,10.19
2016-10-05T09:58:07.602Z,10.25
2016-10-05T09:59:07.295Z,10.19
2016-10-05T10:00:07.909Z,10.16
2016-10-05T10:01:07.585Z,10.08
2016-10-05T10:02:07.285Z,9.90
2016-10-05T10:03:07.887Z,9.96
2016-10-05T10:04:07.603Z,9.89
2016-10-05T10:05:07.224Z,9.95
2016-10-05T10:06:07.893Z,9.91
2016-10-05T10:07:07.587Z,9.82
2016-10-05T10:08:07.205Z,9.59
2016-10-05T10:09:07.907Z,9.70
2016-10-05T10:10:07.526Z,9.75
2016-10-05T10:11:07.185Z,9.73
2016-10-05T10:12:07.875Z,9.76
2016-10-05T10:13:07.495Z,9.68
2016-10-05T10:14:07.188Z,9.68
2016-10-05T10:15:07.789Z,9.64
2016-10-05T10:16:07.430Z,9.79
2016-10-05T10:17:07.209Z,9.84
2016-10-05T10:18:07.852Z,10.02
2016-10-05T10:19:07.537Z,9.98
2016-10-05T10:20:07.225Z,9.98
2016-10-05T10:21:07.912Z,10.09
2016-10-05T10:22:07.590Z,10.15
2016-10-05T10:23:07.208Z,10.16
2016-10-05T10:24:07.832Z,9.97
2016-10-05T10:25:07.487Z,10.02
2016-10-05T10:26:07.147Z,10.00
2016-10-05T10:27:07.835Z,9.85
2016-10-05T10:28:07.445Z,10.12
2016-10-05T10:29:07.105Z,10.06
2016-10-05T10:30:07.753Z,10.19
2016-10-05T10:31:07.403Z,10.36
2016-10-05T10:32:07.110Z,10.40
2016-10-05T10:33:07.725Z,10.44
2016-10-05T10:34:07.316Z,10.35
2016-10-05T10:35:07.955Z,10.41
2016-10-05T10:36:07.635Z,10.36
2016-10-05T10:37:07.327Z,10.36
2016-10-05T10:38:07.899Z,9.97
2016-10-05T10:39:07.644Z,9.87
2016-10-05T10:40:07.252Z,9.80
2016-10-05T10:41:07.921Z,9.85
2016-10-05T10:42:07.660Z,9.91
2016-10-05T10:43:07.244Z,10.17
2016-10-05T10:44:07.953Z,10.23
2016-10-05T10:45:07.574Z,10.15
2016-10-05T10:46:07.202Z,10.22
2016-10-05T10:47:07.923Z,10.18
2016-10-05T10:48:07.540Z,10.00
2016-10-05T10:49:07.193Z,10.04
2016-10-05T10:50:07.860Z,10.24
2016-10-05T10:51:07.445Z,10.29
2016-10-05T10:52:07.112Z,10.37
2016-10-05T10:53:07.714Z,10.46
2016-10-05T10:54:07.337Z,10.41
2016-10-05T10:55:07.994Z,10.35
2016-10-05T10:56:07.662Z,10.45
2016-10-05T10:57:07.324Z,10.53
2016-10-05T10:58:07.976Z,10.57
2016-10-05T10:59:07.662Z,10.50
2016-10-05T11:00:07.275Z,10.36
2016-10-05T11:01:07.912Z,10.43
2016-10-05T11:02:07.621Z,10.50
2016-10-05T11:03:07.257Z,10.56
2016-10-05T11:04:07.908Z,10.33
2016-10-05T11:05:07.580Z,10.38
2016-10-05T11:06:07.254Z,10.48
2016-10-05T11:07:07.919Z,10.56
2016-10-05T11:08:07.524Z,10.64
2016-10-05T11:09:07.155Z,10.72
2016-10-05T11:10:07.795Z,10.74
2016-10-05T11:11:07.455Z,10.87
2016-10-05T11:12:07.049Z,10.86
2016-10-05T11:13:07.709Z,10.98
2016-10-05T11:14:07.411Z,11.05
2016-10-05T11:15:07.041Z,11.09
2016-10-05T11:16:07.706Z,10.99
2016-10-05T11:17:07.492Z,11.00
2016-10-05T11:18:07.160Z,11.00
2016-10-05T11:19:07.806Z,11.02
2016-10-05T11:20:07.598Z,11.03
2016-10-05T11:21:07.143Z,10.97
2016-10-05T11:22:07.853Z,11.10
2016-10-05T11:23:07.453Z,11.15
2016-10-05T11:24:07.072Z,11.14
2016-10-05T11:25:07.712Z,11.18
2016-10-05T11:26:07.388Z,11.12
2016-10-05T11:27:08.060Z,11.10
2016-10-05T11:28:07.618Z,10.66
2016-10-05T11:29:07.333Z,10.69
2016-10-05T11:30:07.921Z,10.74
2016-10-05T11:31:07.571Z,10.64
2016-10-05T11:32:07.267Z,10.63
2016-10-05T11:33:07.875Z,10.85
2016-10-05T11:34:07.561Z,10.93
2016-10-05T11:35:07.231Z,10.81
2016-10-05T11:36:07.914Z,10.87
2016-10-05T11:37:07.627Z,10.92
2016-10-05T11:38:07.221Z,10.90
2016-10-05T11:39:07.849Z,10.93
2016-10-05T11:40:07.511Z,10.66
2016-10-05T11:41:07.169Z,10.66
2016-10-05T11:42:07.851Z,10.74
2016-10-05T11:43:07.430Z,10.78
2016-10-05T11:44:07.192Z,10.84
2016-10-05T11:45:07.791Z,10.93
2016-10-05T11:46:07.542Z,11.09
2016-10-05T11:47:07.214Z,11.27
2016-10-05T11:48:07.800Z,11.22
2016-10-05T11:49:07.449Z,11.23
2016-10-05T11:50:07.094Z,11.14
2016-10-05T11:51:07.760Z,11.19
2016-10-05T11:52:07.429Z,11.25
2016-10-05T11:53:07.040Z,11.07
2016-10-05T11:54:07.684Z,11.10
2016-10-05T11:55:07.281Z,11.05
2016-10-05T11:56:08.003Z,11.09
2016-10-05T11:57:07.707Z,11.04
2016-10-05T11:58:07.269Z,11.04
2016-10-05T11:59:08.022Z,11.12
2016-10-05T12:00:07.687Z,11.13
2016-10-05T12:01:07.323Z,11.24
2016-10-05T12:02:08.005Z,11.23
2016-10-05T12:03:07.599Z,11.37
2016-10-05T12:04:07.284Z,11.29
2016-10-05T12:05:07.899Z,11.37
2016-10-05T12:06:07.546Z,11.37
2016-10-05T12:07:07.241Z,11.48
2016-10-05T12:08:07.859Z,11.58
2016-10-05T12:09:07.551Z,11.34
2016-10-05T12:10:07.180Z,11.44
2016-10-05T12:11:07.858Z,11.53
2016-10-05T12:12:07.676Z,11.42
2016-10-05T12:13:07.269Z,11.56
2016-10-05T12:14:07.981Z,11.74
2016-10-05T12:15:07.582Z,11.81
2016-10-05T12:16:07.211Z,11.69
2016-10-05T12:17:07.987Z,11.71
2016-10-05T12:18:07.699Z,11.61
2016-10-05T12:19:07.348Z,11.53
2016-10-05T12:20:08.033Z,11.41
2016-10-05T12:21:07.620Z,11.46
2016-10-05T12:22:07.345Z,11.44
2016-10-05T12:23:07.922Z,11.51
2016-10-05T12:24:07.568Z,11.62
2016-10-05T12:25:07.174Z,11.74
2016-10-05T12:26:07.839Z,11.60
2016-10-05T12:27:07.556Z,11.57
2016-10-05T12:28:07.128Z,11.48
2016-10-05T12:29:07.852Z,11.28
2016-10-05T12:30:07.468Z,11.20
2016-10-05T12:31:07.102Z,11.27
2016-10-05T12:32:07.823Z,11.20
2016-10-05T12:33:07.408Z,11.08
2016-10-05T12:34:07.040Z,11.17
2016-10-05T12:35:07.698Z,11.16
2016-10-05T12:36:07.332Z,11.06
2016-10-05T12:37:08.013Z,11.35
2016-10-05T12:38:07.654Z,11.39
2016-10-05T12:39:07.288Z,11.28
2016-10-05T12:40:07.935Z,11.09
2016-10-05T12:41:07.563Z,10.85
2016-10-05T12:42:07.271Z,10.89
2016-10-05T12:43:07.825Z,10.93
2016-10-05T12:44:07.537Z,11.17
2016-10-05T12:45:07.168Z,11.10
2016-10-05T12:46:07.808Z,11.24
2016-10-05T12:47:07.500Z,11.52
2016-10-05T12:48:07.113Z,11.70
2016-10-05T12:49:07.774Z,11.84
2016-10-05T12:50:07.405Z,11.95
2016-10-05T12:51:07.029Z,11.94
2016-10-05T12:52:07.728Z,12.03
2016-10-05T12:53:07.366Z,12.11
2016-10-05T12:54:07.959Z,12.03
2016-10-05T12:55:07.610Z,11.76
2016-10-05T12:56:07.273Z,11.70
2016-10-05T12:57:08.016Z,11.55
2016-10-05T12:58:07.515Z,11.40
2016-10-05T12:59:07.253Z,11.23
2016-10-05T13:00:07.864Z,10.90
2016-10-05T13:01:07.511Z,11.06
2016-10-05T13:02:07.229Z,10.93
2016-10-05T13:03:07.885Z,10.85
2016-10-05T13:04:07.514Z,10.91
2016-10-05T13:05:07.177Z,11.10
2016-10-05T13:06:07.815Z,11.01
2016-10-05T13:07:07.492Z,11.26
2016-10-05T13:08:07.099Z,11.36
2016-10-05T13:09:07.711Z,11.16
2016-10-05T13:10:07.359Z,11.31
2016-10-05T13:11:08.013Z,11.47
2016-10-05T13:12:07.706Z,11.50